createdAt,value
2023-05-08T00:00:11.935Z,9.33
2023-05-08T00:05:14.024Z,8.20
2023-05-08T00:10:15.911Z,8.67
2023-05-08T00:15:17.793Z,9.33
2023-05-08T00:20:19.542Z,8.83
2023-05-08T00:25:21.236Z,8.17
2023-05-08T00:30:23.273Z,8.37
2023-05-08T00:35:25.016Z,8.07
2023-05-08T00:40:26.928Z,8.17
2023-05-08T00:45:39.141Z,8.13
2023-05-08T00:50:41.195Z,8.37
2023-05-08T00:55:43.105Z,7.47
2023-05-08T01:00:46.004Z,8.53
2023-05-08T01:05:48.785Z,8.17
2023-05-08T01:11:06.963Z,8.00
2023-05-08T01:16:16.387Z,8.43
2023-05-08T01:21:24.767Z,8.70
2023-05-08T01:26:57.475Z,8.57
2023-05-08T01:32:07.536Z,7.93
2023-05-08T01:37:14.996Z,9.17
2023-05-08T01:42:24.548Z,8.00
2023-05-08T01:47:33.627Z,8.87
2023-05-08T01:52:40.803Z,8.20
2023-05-08T01:57:48.287Z,7.40
2023-05-08T02:02:51.428Z,7.90
2023-05-08T02:07:53.967Z,7.97
2023-05-08T02:12:56.374Z,7.23
2023-05-08T02:17:59.221Z,7.20
2023-05-08T02:23:01.461Z,8.73
2023-05-08T02:28:03.866Z,9.23
2023-05-08T02:33:08.408Z,7.90
2023-05-08T02:38:10.894Z,8.90
2023-05-08T02:43:12.662Z,8.33
2023-05-08T02:48:25.605Z,8.30
2023-05-08T02:53:37.662Z,8.17
2023-05-08T02:59:06.517Z,9.37
2023-05-08T03:10:29.685Z,9.03
2023-05-08T03:15:37.882Z,8.93
2023-05-08T03:20:42.697Z,8.97
2023-05-08T03:25:44.866Z,9.47
2023-05-08T03:30:46.944Z,9.90
2023-05-08T03:35:49.633Z,9.97
2023-05-08T03:40:51.532Z,10.27
2023-05-08T03:45:53.777Z,10.63
2023-05-08T03:50:58.060Z,9.97
2023-05-08T03:56:00.258Z,10.70
2023-05-08T04:01:14.178Z,10.73
2023-05-08T04:06:50.585Z,11.30
2023-05-08T04:12:04.062Z,10.60
2023-05-08T04:17:07.756Z,11.80
2023-05-08T04:22:14.745Z,11.30
2023-05-08T04:27:16.630Z,13.90
2023-05-08T04:32:18.640Z,11.83
2023-05-08T04:37:28.210Z,11.50
2023-05-08T04:42:30.546Z,11.37
2023-05-08T04:47:32.412Z,10.83
2023-05-08T04:52:50.869Z,10.07
2023-05-08T04:57:52.837Z,11.20
2023-05-08T05:02:56.637Z,12.67
2023-05-08T05:08:00.427Z,12.50
2023-05-08T05:13:02.275Z,12.17
2023-05-08T05:18:04.312Z,17.43
2023-05-08T05:23:08.466Z,12.23
2023-05-08T05:28:17.976Z,11.40
2023-05-08T05:33:20.196Z,12.70
2023-05-08T05:38:21.996Z,11.13
2023-05-08T05:43:23.714Z,11.77
2023-05-08T05:48:25.460Z,12.13
2023-05-08T05:53:27.307Z,13.43
2023-05-08T05:58:29.251Z,13.10
2023-05-08T06:03:31.136Z,11.47
2023-05-08T06:08:34.391Z,12.17
2023-05-08T06:13:36.149Z,13.37
2023-05-08T06:18:37.860Z,11.50
2023-05-08T06:23:39.497Z,13.30
2023-05-08T06:28:41.238Z,12.00
2023-05-08T06:33:42.983Z,12.03
2023-05-08T06:38:44.668Z,12.93
2023-05-08T06:43:46.508Z,11.90
2023-05-08T06:48:48.198Z,11.33
2023-05-08T06:53:49.901Z,14.13
2023-05-08T06:59:04.505Z,11.43
2023-05-08T07:04:09.884Z,12.27
2023-05-08T07:09:12.062Z,12.90
2023-05-08T07:14:14.020Z,12.03
2023-05-08T07:19:15.683Z,13.20
2023-05-08T07:24:17.459Z,13.87
2023-05-08T07:29:20.586Z,12.00
2023-05-08T07:34:22.466Z,11.80
2023-05-08T07:39:24.206Z,12.63
2023-05-08T07:44:26.008Z,12.60
2023-05-08T07:49:27.708Z,13.57
2023-05-08T07:54:29.515Z,12.47
2023-05-08T07:59:31.164Z,12.87
2023-05-08T08:04:33.252Z,12.47
2023-05-08T08:09:37.414Z,16.40
2023-05-08T08:14:39.237Z,12.67
2023-05-08T08:19:40.883Z,13.23
2023-05-08T08:24:42.660Z,12.83
2023-05-08T08:29:45.316Z,11.37
2023-05-08T08:34:47.045Z,13.17
2023-05-08T08:39:48.679Z,13.37
2023-05-08T08:44:51.330Z,12.30
2023-05-08T08:49:53.749Z,12.97
2023-05-08T08:54:57.368Z,13.03
2023-05-08T09:00:03.823Z,12.93
2023-05-08T09:05:06.085Z,11.90
2023-05-08T09:10:08.404Z,13.43
2023-05-08T09:15:10.408Z,13.23
2023-05-08T09:20:14.573Z,12.40
2023-05-08T09:25:18.932Z,12.13
2023-05-08T09:30:20.704Z,14.90
2023-05-08T09:35:36.635Z,12.00
2023-05-08T09:40:38.254Z,12.50
2023-05-08T09:45:41.399Z,13.93
2023-05-08T09:50:43.701Z,15.63
2023-05-08T09:55:49.054Z,13.03
2023-05-08T10:00:51.048Z,12.30
2023-05-08T10:05:52.807Z,12.70
2023-05-08T10:10:54.540Z,11.87
2023-05-08T10:15:56.824Z,10.47
2023-05-08T10:20:59.572Z,13.40
2023-05-08T10:26:08.960Z,10.97
2023-05-08T10:31:14.372Z,11.90
2023-05-08T10:36:16.259Z,9.87
2023-05-08T10:41:19.726Z,8.57
2023-05-08T10:46:40.462Z,7.37
2023-05-08T10:51:56.442Z,7.13
2023-05-08T10:57:11.691Z,8.53
2023-05-08T11:02:14.170Z,10.43
2023-05-08T11:07:16.075Z,10.17
2023-05-08T11:12:28.582Z,8.63
2023-05-08T11:17:30.439Z,9.80
2023-05-08T11:22:33.220Z,8.00
2023-05-08T11:27:50.138Z,6.50
2023-05-08T11:32:59.709Z,7.73
2023-05-08T11:38:21.529Z,6.90
2023-05-08T11:43:49.253Z,9.40
2023-05-08T11:48:59.773Z,9.00
2023-05-08T11:54:05.696Z,9.47
2023-05-08T11:59:08.871Z,7.03
2023-05-08T12:04:12.504Z,6.57
2023-05-08T12:09:16.378Z,7.27
2023-05-08T12:14:18.211Z,5.73
2023-05-08T12:19:20.058Z,7.10
2023-05-08T12:24:26.060Z,7.10
2023-05-08T12:29:27.882Z,6.47
2023-05-08T12:34:29.727Z,8.20
2023-05-08T12:39:35.897Z,6.70
2023-05-08T12:44:37.614Z,7.40
2023-05-08T12:49:39.407Z,8.83
2023-05-08T12:54:48.453Z,7.77
2023-05-08T12:59:50.545Z,7.57
2023-05-08T13:04:59.354Z,7.10
2023-05-08T13:10:04.731Z,6.27
2023-05-08T13:15:07.235Z,7.07
2023-05-08T13:20:09.623Z,6.53
2023-05-08T13:25:11.463Z,6.13
2023-05-08T13:30:15.306Z,5.83
2023-05-08T13:35:18.359Z,9.63
2023-05-08T13:40:20.356Z,5.83
2023-05-08T13:45:22.053Z,7.77
2023-05-08T13:50:23.803Z,7.23
2023-05-08T13:55:25.722Z,5.30
2023-05-08T14:00:28.258Z,5.47
2023-05-08T14:05:30.306Z,6.47
2023-05-08T14:10:32.038Z,6.10
2023-05-08T14:15:37.306Z,6.60
2023-05-08T14:20:39.545Z,6.83
2023-05-08T14:25:41.252Z,6.57
2023-05-08T14:30:43.073Z,7.33
2023-05-08T14:35:45.868Z,7.77
2023-05-08T14:40:50.972Z,5.73
2023-05-08T14:45:52.685Z,7.07
2023-05-08T14:50:54.501Z,7.87
2023-05-08T14:55:56.424Z,8.80
2023-05-08T15:00:58.245Z,10.37
2023-05-08T15:06:00.036Z,7.37
2023-05-08T15:11:01.739Z,4.20
2023-05-08T15:16:03.507Z,3.93
2023-05-08T15:21:05.516Z,4.43
2023-05-08T15:26:08.367Z,3.83
2023-05-08T15:31:10.081Z,7.60
2023-05-08T15:36:13.012Z,11.02
2023-05-08T15:41:15.563Z,8.07
2023-05-08T15:46:17.649Z,6.17
2023-05-08T15:51:19.666Z,7.57
2023-05-08T16:12:12.594Z,6.70
2023-05-08T16:18:21.371Z,7.63
2023-05-08T16:24:21.073Z,7.90
2023-05-08T16:35:50.068Z,8.17
2023-05-08T16:40:56.486Z,9.03
2023-05-08T16:47:05.131Z,9.37
2023-05-08T16:52:33.035Z,8.00
2023-05-08T16:57:35.630Z,9.17
2023-05-08T17:02:37.543Z,8.63
2023-05-08T17:14:10.641Z,13.57
2023-05-08T17:19:12.805Z,9.60
2023-05-08T17:37:38.949Z,8.00
2023-05-08T17:42:40.882Z,7.07
2023-05-08T17:47:42.618Z,9.20
2023-05-08T17:52:45.669Z,8.33
2023-05-08T18:04:21.768Z,20.33
2023-05-08T18:09:23.925Z,8.33
2023-05-08T18:14:30.095Z,7.23
2023-05-08T18:20:29.560Z,7.77
2023-05-08T18:36:43.874Z,12.53
2023-05-08T18:41:45.644Z,9.50
2023-05-08T18:54:47.881Z,8.83
2023-05-08T18:59:50.517Z,7.87
2023-05-08T19:04:52.390Z,10.97
2023-05-08T19:15:56.510Z,10.30
2023-05-08T19:20:58.420Z,10.63
2023-05-08T20:51:37.227Z,15.23
2023-05-08T20:57:07.900Z,20.17
2023-05-08T21:02:12.065Z,16.13
2023-05-08T21:07:26.842Z,18.07
2023-05-08T21:12:28.868Z,17.80
2023-05-08T21:17:36.048Z,17.50
2023-05-08T21:22:43.150Z,20.07
2023-05-08T21:27:45.063Z,21.20
2023-05-08T21:32:53.577Z,19.83
2023-05-08T21:38:08.367Z,18.90
2023-05-08T21:43:16.745Z,19.63
2023-05-08T21:48:37.455Z,19.47
2023-05-08T21:53:39.439Z,19.77
2023-05-08T21:58:41.310Z,21.20
2023-05-08T22:03:44.651Z,19.87
2023-05-08T22:08:52.362Z,20.20
2023-05-08T22:13:54.340Z,22.20
2023-05-08T22:18:57.901Z,18.50
2023-05-08T22:23:59.994Z,19.77
2023-05-08T22:29:05.307Z,19.53
2023-05-08T22:34:07.235Z,20.33
2023-05-08T22:39:11.934Z,19.67
2023-05-08T22:44:13.688Z,18.33
2023-05-08T22:49:15.508Z,21.20
2023-05-08T22:54:18.960Z,20.77
2023-05-08T22:59:20.839Z,21.77
2023-05-08T23:04:24.561Z,22.90
2023-05-08T23:09:28.994Z,19.90
2023-05-08T23:14:32.071Z,20.63
2023-05-08T23:19:35.585Z,19.53
2023-05-08T23:24:47.842Z,17.93
2023-05-08T23:29:50.010Z,18.03
2023-05-08T23:34:53.109Z,19.00
2023-05-08T23:39:55.866Z,20.53
2023-05-08T23:45:00.183Z,19.17
2023-05-08T23:50:04.871Z,19.60
2023-05-08T23:55:10.046Z,19.10
